sensor_id;sensor_type;location;lat;lon;timestamp;temperature;humidity
21676;DHT22;10999;51.332;9.458;2022-12-07T00:01:32;2.20;98.90
21676;DHT22;10999;51.332;9.458;2022-12-07T00:04:00;2.20;98.90
21676;DHT22;10999;51.332;9.458;2022-12-07T00:06:36;2.20;99.00
21676;DHT22;10999;51.332;9.458;2022-12-07T00:09:05;2.20;99.10
21676;DHT22;10999;51.332;9.458;2022-12-07T00:11:32;2.20;99.30
21676;DHT22;10999;51.332;9.458;2022-12-07T00:14:02;2.20;99.30
21676;DHT22;10999;51.332;9.458;2022-12-07T00:16:34;2.20;99.40
21676;DHT22;10999;51.332;9.458;2022-12-07T00:19:01;2.20;99.40
21676;DHT22;10999;51.332;9.458;2022-12-07T00:21:30;2.20;99.50
21676;DHT22;10999;51.332;9.458;2022-12-07T00:23:57;2.20;99.60
21676;DHT22;10999;51.332;9.458;2022-12-07T00:26:38;2.20;99.70
21676;DHT22;10999;51.332;9.458;2022-12-07T00:29:19;2.20;99.80
21676;DHT22;10999;51.332;9.458;2022-12-07T00:31:46;2.20;99.90
21676;DHT22;10999;51.332;9.458;2022-12-07T00:34:16;2.20;99.90
21676;DHT22;10999;51.332;9.458;2022-12-07T00:36:42;2.10;99.90
21676;DHT22;10999;51.332;9.458;2022-12-07T00:39:09;2.20;99.90
21676;DHT22;10999;51.332;9.458;2022-12-07T00:41:36;2.20;99.90
21676;DHT22;10999;51.332;9.458;2022-12-07T00:44:03;2.10;99.90
21676;DHT22;10999;51.332;9.458;2022-12-07T00:46:30;2.20;99.90
21676;DHT22;10999;51.332;9.458;2022-12-07T00:48:57;2.20;99.90
21676;DHT22;10999;51.332;9.458;2022-12-07T00:51:24;2.20;99.90
21676;DHT22;10999;51.332;9.458;2022-12-07T00:53:52;2.20;99.90
21676;DHT22;10999;51.332;9.458;2022-12-07T00:56:21;2.20;99.90
21676;DHT22;10999;51.332;9.458;2022-12-07T01:01:23;2.20;99.90
21676;DHT22;10999;51.332;9.458;2022-12-07T01:03:49;2.20;99.90
21676;DHT22;10999;51.332;9.458;2022-12-07T01:06:18;2.20;99.90
21676;DHT22;10999;51.332;9.458;2022-12-07T01:08:45;2.20;99.90
21676;DHT22;10999;51.332;9.458;2022-12-07T01:11:15;2.20;99.90
21676;DHT22;10999;51.332;9.458;2022-12-07T01:13:42;2.20;99.90
21676;DHT22;10999;51.332;9.458;2022-12-07T01:16:11;2.20;99.90
21676;DHT22;10999;51.332;9.458;2022-12-07T01:18:39;2.30;99.90
21676;DHT22;10999;51.332;9.458;2022-12-07T01:21:09;2.30;99.90
21676;DHT22;10999;51.332;9.458;2022-12-07T01:23:37;2.30;99.90
21676;DHT22;10999;51.332;9.458;2022-12-07T01:26:10;2.30;99.90
21676;DHT22;10999;51.332;9.458;2022-12-07T01:28:37;2.30;99.90
21676;DHT22;10999;51.332;9.458;2022-12-07T01:31:10;2.30;99.90
21676;DHT22;10999;51.332;9.458;2022-12-07T01:33:38;2.30;99.90
21676;DHT22;10999;51.332;9.458;2022-12-07T01:36:08;2.30;99.90
21676;DHT22;10999;51.332;9.458;2022-12-07T01:38:39;2.30;99.90
21676;DHT22;10999;51.332;9.458;2022-12-07T01:41:06;2.30;99.90
21676;DHT22;10999;51.332;9.458;2022-12-07T01:43:34;2.30;99.90
21676;DHT22;10999;51.332;9.458;2022-12-07T01:46:02;2.30;99.90
21676;DHT22;10999;51.332;9.458;2022-12-07T01:48:38;2.30;99.90
21676;DHT22;10999;51.332;9.458;2022-12-07T01:51:10;2.30;99.90
21676;DHT22;10999;51.332;9.458;2022-12-07T01:53:41;2.40;99.90
21676;DHT22;10999;51.332;9.458;2022-12-07T01:56:11;2.40;99.90
21676;DHT22;10999;51.332;9.458;2022-12-07T01:58:40;2.40;99.90
21676;DHT22;10999;51.332;9.458;2022-12-07T02:01:07;2.40;99.90
21676;DHT22;10999;51.332;9.458;2022-12-07T02:03:42;2.40;99.90
21676;DHT22;10999;51.332;9.458;2022-12-07T02:06:12;2.40;99.90
21676;DHT22;10999;51.332;9.458;2022-12-07T02:08:40;2.50;99.90
21676;DHT22;10999;51.332;9.458;2022-12-07T02:11:08;2.40;99.90
21676;DHT22;10999;51.332;9.458;2022-12-07T02:13:38;2.50;99.90
21676;DHT22;10999;51.332;9.458;2022-12-07T02:25:06;2.50;99.90
21676;DHT22;10999;51.332;9.458;2022-12-07T02:28:00;2.50;99.90
21676;DHT22;10999;51.332;9.458;2022-12-07T02:30:34;2.50;99.90
21676;DHT22;10999;51.332;9.458;2022-12-07T02:35:49;2.50;99.90
21676;DHT22;10999;51.332;9.458;2022-12-07T02:38:25;2.50;99.90
21676;DHT22;10999;51.332;9.458;2022-12-07T02:41:02;2.50;99.90
21676;DHT22;10999;51.332;9.458;2022-12-07T02:43:46;2.60;99.90
21676;DHT22;10999;51.332;9.458;2022-12-07T02:46:23;2.60;99.90
21676;DHT22;10999;51.332;9.458;2022-12-07T02:48:52;2.60;99.90
21676;DHT22;10999;51.332;9.458;2022-12-07T02:51:21;2.60;99.90
21676;DHT22;10999;51.332;9.458;2022-12-07T02:53:48;2.60;99.90
21676;DHT22;10999;51.332;9.458;2022-12-07T02:56:20;2.60;99.90
21676;DHT22;10999;51.332;9.458;2022-12-07T03:05:03;2.90;99.90
21676;DHT22;10999;51.332;9.458;2022-12-07T03:10:55;3.10;99.90
21676;DHT22;10999;51.332;9.458;2022-12-07T03:13:19;3.10;99.90
21676;DHT22;10999;51.332;9.458;2022-12-07T03:21:18;3.20;99.90
21676;DHT22;10999;51.332;9.458;2022-12-07T03:23:51;3.20;99.90
21676;DHT22;10999;51.332;9.458;2022-12-07T03:26:22;3.20;99.90
21676;DHT22;10999;51.332;9.458;2022-12-07T03:28:53;3.20;99.90
21676;DHT22;10999;51.332;9.458;2022-12-07T03:31:25;3.20;99.90
21676;DHT22;10999;51.332;9.458;2022-12-07T03:36:42;3.30;99.90
21676;DHT22;10999;51.332;9.458;2022-12-07T03:39:39;3.20;99.90
21676;DHT22;10999;51.332;9.458;2022-12-07T03:42:08;3.20;99.90
21676;DHT22;10999;51.332;9.458;2022-12-07T03:44:36;3.30;99.90
21676;DHT22;10999;51.332;9.458;2022-12-07T03:49:55;3.20;99.90
21676;DHT22;10999;51.332;9.458;2022-12-07T03:52:41;3.30;99.90
21676;DHT22;10999;51.332;9.458;2022-12-07T03:55:22;3.30;99.90
21676;DHT22;10999;51.332;9.458;2022-12-07T03:57:53;3.30;99.90
21676;DHT22;10999;51.332;9.458;2022-12-07T04:00:20;3.30;99.90
21676;DHT22;10999;51.332;9.458;2022-12-07T04:02:47;3.30;99.90
21676;DHT22;10999;51.332;9.458;2022-12-07T04:05:17;3.30;99.90
21676;DHT22;10999;51.332;9.458;2022-12-07T04:07:44;3.30;99.90
21676;DHT22;10999;51.332;9.458;2022-12-07T04:10:11;3.30;99.90
21676;DHT22;10999;51.332;9.458;2022-12-07T04:12:38;3.30;99.90
21676;DHT22;10999;51.332;9.458;2022-12-07T04:15:06;3.30;99.90
21676;DHT22;10999;51.332;9.458;2022-12-07T04:17:32;3.30;99.90
21676;DHT22;10999;51.332;9.458;2022-12-07T04:19:59;3.30;99.90
21676;DHT22;10999;51.332;9.458;2022-12-07T04:22:26;3.30;99.90
21676;DHT22;10999;51.332;9.458;2022-12-07T04:24:53;3.30;99.90
21676;DHT22;10999;51.332;9.458;2022-12-07T04:27:20;3.30;99.90
21676;DHT22;10999;51.332;9.458;2022-12-07T04:29:46;3.40;99.90
21676;DHT22;10999;51.332;9.458;2022-12-07T04:32:13;3.30;99.90
21676;DHT22;10999;51.332;9.458;2022-12-07T04:34:40;3.30;99.90
21676;DHT22;10999;51.332;9.458;2022-12-07T04:37:06;3.30;99.90
21676;DHT22;10999;51.332;9.458;2022-12-07T04:39:33;3.40;99.90
21676;DHT22;10999;51.332;9.458;2022-12-07T04:42:01;3.40;99.90
21676;DHT22;10999;51.332;9.458;2022-12-07T04:44:28;3.40;99.90
21676;DHT22;10999;51.332;9.458;2022-12-07T04:46:55;3.40;99.90
21676;DHT22;10999;51.332;9.458;2022-12-07T04:49:24;3.50;99.90
21676;DHT22;10999;51.332;9.458;2022-12-07T04:51:51;3.50;99.90
21676;DHT22;10999;51.332;9.458;2022-12-07T04:54:18;3.50;99.90
21676;DHT22;10999;51.332;9.458;2022-12-07T04:56:45;3.60;99.90
21676;DHT22;10999;51.332;9.458;2022-12-07T04:59:12;3.60;99.90
21676;DHT22;10999;51.332;9.458;2022-12-07T05:01:39;3.60;99.90
21676;DHT22;10999;51.332;9.458;2022-12-07T05:04:07;3.60;99.90
21676;DHT22;10999;51.332;9.458;2022-12-07T05:06:34;3.60;99.90
21676;DHT22;10999;51.332;9.458;2022-12-07T05:09:01;3.60;99.90
21676;DHT22;10999;51.332;9.458;2022-12-07T05:11:29;3.60;99.90
21676;DHT22;10999;51.332;9.458;2022-12-07T05:14:13;3.60;99.90
21676;DHT22;10999;51.332;9.458;2022-12-07T05:16:42;3.60;99.70
21676;DHT22;10999;51.332;9.458;2022-12-07T05:19:09;3.50;99.40
21676;DHT22;10999;51.332;9.458;2022-12-07T05:21:37;3.50;99.30
21676;DHT22;10999;51.332;9.458;2022-12-07T05:24:04;3.50;99.40
21676;DHT22;10999;51.332;9.458;2022-12-07T05:26:31;3.50;99.40
21676;DHT22;10999;51.332;9.458;2022-12-07T05:28:58;3.50;99.30
21676;DHT22;10999;51.332;9.458;2022-12-07T05:31:26;3.50;99.30
21676;DHT22;10999;51.332;9.458;2022-12-07T05:33:53;3.50;99.10
21676;DHT22;10999;51.332;9.458;2022-12-07T05:36:20;3.60;98.90
21676;DHT22;10999;51.332;9.458;2022-12-07T05:38:47;3.50;98.80
21676;DHT22;10999;51.332;9.458;2022-12-07T05:41:18;3.50;98.60
21676;DHT22;10999;51.332;9.458;2022-12-07T05:44:04;3.60;98.30
21676;DHT22;10999;51.332;9.458;2022-12-07T05:46:31;3.50;98.30
21676;DHT22;10999;51.332;9.458;2022-12-07T05:48:58;3.50;98.30
21676;DHT22;10999;51.332;9.458;2022-12-07T05:51:25;3.50;98.20
21676;DHT22;10999;51.332;9.458;2022-12-07T05:53:52;3.50;98.10
21676;DHT22;10999;51.332;9.458;2022-12-07T05:56:18;3.50;98.20
21676;DHT22;10999;51.332;9.458;2022-12-07T05:58:45;3.50;98.20
21676;DHT22;10999;51.332;9.458;2022-12-07T06:01:30;3.50;98.10
21676;DHT22;10999;51.332;9.458;2022-12-07T06:03:57;3.50;97.80
21676;DHT22;10999;51.332;9.458;2022-12-07T06:06:24;3.50;97.50
21676;DHT22;10999;51.332;9.458;2022-12-07T06:08:50;3.50;97.40
21676;DHT22;10999;51.332;9.458;2022-12-07T06:11:17;3.50;97.20
21676;DHT22;10999;51.332;9.458;2022-12-07T06:14:02;3.50;97.20
21676;DHT22;10999;51.332;9.458;2022-12-07T06:16:29;3.50;96.90
21676;DHT22;10999;51.332;9.458;2022-12-07T06:18:56;3.50;96.80
21676;DHT22;10999;51.332;9.458;2022-12-07T06:21:23;3.50;96.60
21676;DHT22;10999;51.332;9.458;2022-12-07T06:23:49;3.40;96.30
21676;DHT22;10999;51.332;9.458;2022-12-07T06:26:16;3.40;96.20
21676;DHT22;10999;51.332;9.458;2022-12-07T06:28:43;3.30;96.30
21676;DHT22;10999;51.332;9.458;2022-12-07T06:31:09;3.30;96.50
21676;DHT22;10999;51.332;9.458;2022-12-07T06:33:40;3.30;96.80
21676;DHT22;10999;51.332;9.458;2022-12-07T06:36:07;3.30;96.90
21676;DHT22;10999;51.332;9.458;2022-12-07T06:38:34;3.30;97.20
21676;DHT22;10999;51.332;9.458;2022-12-07T06:41:00;3.30;96.90
21676;DHT22;10999;51.332;9.458;2022-12-07T06:43:27;3.30;96.60
21676;DHT22;10999;51.332;9.458;2022-12-07T06:45:54;3.30;96.40
21676;DHT22;10999;51.332;9.458;2022-12-07T06:48:21;3.30;96.30
21676;DHT22;10999;51.332;9.458;2022-12-07T06:50:49;3.30;96.10
21676;DHT22;10999;51.332;9.458;2022-12-07T06:53:21;3.30;95.90
21676;DHT22;10999;51.332;9.458;2022-12-07T06:55:48;3.20;95.90
21676;DHT22;10999;51.332;9.458;2022-12-07T06:58:14;3.20;96.20
21676;DHT22;10999;51.332;9.458;2022-12-07T07:00:41;3.20;96.40
21676;DHT22;10999;51.332;9.458;2022-12-07T07:03:08;3.20;96.70
21676;DHT22;10999;51.332;9.458;2022-12-07T07:05:35;3.30;96.90
21676;DHT22;10999;51.332;9.458;2022-12-07T07:08:02;3.30;96.80
21676;DHT22;10999;51.332;9.458;2022-12-07T07:10:49;3.30;96.90
21676;DHT22;10999;51.332;9.458;2022-12-07T07:13:16;3.30;96.70
21676;DHT22;10999;51.332;9.458;2022-12-07T07:15:42;3.40;96.60
21676;DHT22;10999;51.332;9.458;2022-12-07T07:18:09;3.40;96.30
21676;DHT22;10999;51.332;9.458;2022-12-07T07:20:37;3.40;96.20
21676;DHT22;10999;51.332;9.458;2022-12-07T07:23:04;3.40;96.30
21676;DHT22;10999;51.332;9.458;2022-12-07T07:25:31;3.40;96.10
21676;DHT22;10999;51.332;9.458;2022-12-07T07:27:58;3.40;96.00
21676;DHT22;10999;51.332;9.458;2022-12-07T07:30:25;3.50;96.00
21676;DHT22;10999;51.332;9.458;2022-12-07T07:32:59;3.50;95.80
21676;DHT22;10999;51.332;9.458;2022-12-07T07:35:27;3.50;96.10
21676;DHT22;10999;51.332;9.458;2022-12-07T07:37:54;3.50;95.90
21676;DHT22;10999;51.332;9.458;2022-12-07T07:40:21;3.40;95.70
21676;DHT22;10999;51.332;9.458;2022-12-07T07:42:49;3.40;95.80
21676;DHT22;10999;51.332;9.458;2022-12-07T07:45:17;3.40;96.00
21676;DHT22;10999;51.332;9.458;2022-12-07T07:47:43;3.40;96.20
21676;DHT22;10999;51.332;9.458;2022-12-07T07:50:10;3.40;97.10
21676;DHT22;10999;51.332;9.458;2022-12-07T07:52:37;3.40;96.50
21676;DHT22;10999;51.332;9.458;2022-12-07T07:55:04;3.40;96.50
21676;DHT22;10999;51.332;9.458;2022-12-07T07:57:31;3.40;96.70
21676;DHT22;10999;51.332;9.458;2022-12-07T07:59:58;3.40;96.70
21676;DHT22;10999;51.332;9.458;2022-12-07T08:02:25;3.50;96.70
21676;DHT22;10999;51.332;9.458;2022-12-07T08:04:51;3.50;96.40
21676;DHT22;10999;51.332;9.458;2022-12-07T08:07:18;3.50;96.30
21676;DHT22;10999;51.332;9.458;2022-12-07T08:09:45;3.50;96.20
21676;DHT22;10999;51.332;9.458;2022-12-07T08:12:11;3.60;95.60
21676;DHT22;10999;51.332;9.458;2022-12-07T08:14:38;3.60;95.50
21676;DHT22;10999;51.332;9.458;2022-12-07T08:17:05;3.60;95.30
21676;DHT22;10999;51.332;9.458;2022-12-07T08:19:32;3.60;94.80
21676;DHT22;10999;51.332;9.458;2022-12-07T08:21:59;3.60;94.70
21676;DHT22;10999;51.332;9.458;2022-12-07T08:24:26;3.60;94.90
21676;DHT22;10999;51.332;9.458;2022-12-07T08:26:53;3.60;94.40
21676;DHT22;10999;51.332;9.458;2022-12-07T08:29:19;3.50;94.10
21676;DHT22;10999;51.332;9.458;2022-12-07T08:31:47;3.50;94.00
21676;DHT22;10999;51.332;9.458;2022-12-07T08:34:13;3.40;94.10
21676;DHT22;10999;51.332;9.458;2022-12-07T08:36:40;3.40;94.40
21676;DHT22;10999;51.332;9.458;2022-12-07T08:39:07;3.40;94.70
21676;DHT22;10999;51.332;9.458;2022-12-07T08:41:53;3.40;95.10
21676;DHT22;10999;51.332;9.458;2022-12-07T08:44:20;3.50;95.50
21676;DHT22;10999;51.332;9.458;2022-12-07T08:46:50;3.50;95.70
21676;DHT22;10999;51.332;9.458;2022-12-07T08:49:22;3.60;95.20
21676;DHT22;10999;51.332;9.458;2022-12-07T08:51:50;3.60;95.20
21676;DHT22;10999;51.332;9.458;2022-12-07T08:54:18;3.70;94.60
21676;DHT22;10999;51.332;9.458;2022-12-07T08:56:46;3.80;94.00
21676;DHT22;10999;51.332;9.458;2022-12-07T08:59:17;3.80;92.80
21676;DHT22;10999;51.332;9.458;2022-12-07T09:01:45;3.80;92.50
21676;DHT22;10999;51.332;9.458;2022-12-07T09:04:12;3.80;92.50
21676;DHT22;10999;51.332;9.458;2022-12-07T09:06:39;3.90;93.00
21676;DHT22;10999;51.332;9.458;2022-12-07T09:09:06;4.00;91.80
21676;DHT22;10999;51.332;9.458;2022-12-07T09:11:34;4.00;91.70
21676;DHT22;10999;51.332;9.458;2022-12-07T09:14:00;4.10;92.00
21676;DHT22;10999;51.332;9.458;2022-12-07T09:16:27;4.20;91.70
21676;DHT22;10999;51.332;9.458;2022-12-07T09:18:54;4.20;90.90
21676;DHT22;10999;51.332;9.458;2022-12-07T09:21:20;4.40;91.10
21676;DHT22;10999;51.332;9.458;2022-12-07T09:23:47;4.50;91.50
21676;DHT22;10999;51.332;9.458;2022-12-07T09:26:14;4.60;89.60
21676;DHT22;10999;51.332;9.458;2022-12-07T09:28:40;4.50;88.20
21676;DHT22;10999;51.332;9.458;2022-12-07T09:31:07;4.50;88.00
21676;DHT22;10999;51.332;9.458;2022-12-07T09:34:09;4.50;89.00
21676;DHT22;10999;51.332;9.458;2022-12-07T09:36:36;4.50;89.50
21676;DHT22;10999;51.332;9.458;2022-12-07T09:39:03;4.30;89.80
21676;DHT22;10999;51.332;9.458;2022-12-07T09:41:31;4.30;90.60
21676;DHT22;10999;51.332;9.458;2022-12-07T09:44:09;4.20;91.30
21676;DHT22;10999;51.332;9.458;2022-12-07T09:46:39;4.20;92.00
21676;DHT22;10999;51.332;9.458;2022-12-07T09:49:16;4.30;93.10
21676;DHT22;10999;51.332;9.458;2022-12-07T09:51:45;4.30;92.70
21676;DHT22;10999;51.332;9.458;2022-12-07T09:54:13;4.30;92.90
21676;DHT22;10999;51.332;9.458;2022-12-07T09:56:41;4.30;92.50
21676;DHT22;10999;51.332;9.458;2022-12-07T09:59:13;4.40;92.30
21676;DHT22;10999;51.332;9.458;2022-12-07T10:01:47;4.40;92.60
21676;DHT22;10999;51.332;9.458;2022-12-07T10:04:25;4.40;92.30
21676;DHT22;10999;51.332;9.458;2022-12-07T10:06:52;4.40;92.60
21676;DHT22;10999;51.332;9.458;2022-12-07T10:09:21;4.40;92.90
21676;DHT22;10999;51.332;9.458;2022-12-07T10:12:07;4.30;92.40
21676;DHT22;10999;51.332;9.458;2022-12-07T10:14:38;4.30;91.80
21676;DHT22;10999;51.332;9.458;2022-12-07T10:20:22;4.10;90.60
21676;DHT22;10999;51.332;9.458;2022-12-07T10:22:56;4.10;90.30
21676;DHT22;10999;51.332;9.458;2022-12-07T10:25:27;4.20;91.30
21676;DHT22;10999;51.332;9.458;2022-12-07T10:30:31;4.40;89.30
21676;DHT22;10999;51.332;9.458;2022-12-07T10:32:59;4.40;89.00
21676;DHT22;10999;51.332;9.458;2022-12-07T10:35:28;4.40;88.60
21676;DHT22;10999;51.332;9.458;2022-12-07T10:37:59;4.50;88.70
21676;DHT22;10999;51.332;9.458;2022-12-07T10:40:33;4.60;89.00
21676;DHT22;10999;51.332;9.458;2022-12-07T10:46:22;5.10;89.90
21676;DHT22;10999;51.332;9.458;2022-12-07T10:49:23;5.20;87.20
21676;DHT22;10999;51.332;9.458;2022-12-07T10:52:15;5.40;86.30
21676;DHT22;10999;51.332;9.458;2022-12-07T10:55:18;5.50;85.20
21676;DHT22;10999;51.332;9.458;2022-12-07T11:00:27;5.50;83.40
21676;DHT22;10999;51.332;9.458;2022-12-07T11:05:45;5.20;85.10
21676;DHT22;10999;51.332;9.458;2022-12-07T11:08:44;5.00;84.90
21676;DHT22;10999;51.332;9.458;2022-12-07T11:11:23;5.00;86.90
21676;DHT22;10999;51.332;9.458;2022-12-07T11:16:47;5.00;88.40
21676;DHT22;10999;51.332;9.458;2022-12-07T11:19:19;4.90;88.20
21676;DHT22;10999;51.332;9.458;2022-12-07T11:21:57;4.80;88.20
21676;DHT22;10999;51.332;9.458;2022-12-07T11:29:59;4.40;87.80
21676;DHT22;10999;51.332;9.458;2022-12-07T11:35:37;4.30;88.00
21676;DHT22;10999;51.332;9.458;2022-12-07T11:38:18;4.20;88.00
21676;DHT22;10999;51.332;9.458;2022-12-07T11:40:58;4.10;87.00
21676;DHT22;10999;51.332;9.458;2022-12-07T11:44:22;4.10;87.60
21676;DHT22;10999;51.332;9.458;2022-12-07T11:47:11;4.20;89.00
21676;DHT22;10999;51.332;9.458;2022-12-07T11:50:01;4.50;90.40
21676;DHT22;10999;51.332;9.458;2022-12-07T11:52:52;4.90;90.60
21676;DHT22;10999;51.332;9.458;2022-12-07T12:04:13;5.30;83.90
21676;DHT22;10999;51.332;9.458;2022-12-07T12:06:45;5.40;85.70
21676;DHT22;10999;51.332;9.458;2022-12-07T12:09:14;5.40;83.70
21676;DHT22;10999;51.332;9.458;2022-12-07T12:15:40;5.40;82.90
21676;DHT22;10999;51.332;9.458;2022-12-07T12:18:58;5.30;82.10
21676;DHT22;10999;51.332;9.458;2022-12-07T12:21:28;5.30;82.40
21676;DHT22;10999;51.332;9.458;2022-12-07T12:23:57;5.20;82.10
21676;DHT22;10999;51.332;9.458;2022-12-07T12:26:28;5.20;82.70
21676;DHT22;10999;51.332;9.458;2022-12-07T12:28:58;5.30;81.90
21676;DHT22;10999;51.332;9.458;2022-12-07T12:33:56;5.20;82.30
21676;DHT22;10999;51.332;9.458;2022-12-07T12:47:00;4.80;83.20
21676;DHT22;10999;51.332;9.458;2022-12-07T12:57:33;3.70;85.90
21676;DHT22;10999;51.332;9.458;2022-12-07T13:00:01;3.50;88.30
21676;DHT22;10999;51.332;9.458;2022-12-07T13:02:47;3.50;90.60
21676;DHT22;10999;51.332;9.458;2022-12-07T13:05:19;3.50;92.20
21676;DHT22;10999;51.332;9.458;2022-12-07T13:13:29;3.70;94.40
21676;DHT22;10999;51.332;9.458;2022-12-07T13:18:36;3.80;94.70
21676;DHT22;10999;51.332;9.458;2022-12-07T13:23:39;3.90;94.80
21676;DHT22;10999;51.332;9.458;2022-12-07T13:29:20;3.90;94.50
21676;DHT22;10999;51.332;9.458;2022-12-07T13:31:52;3.90;94.30
21676;DHT22;10999;51.332;9.458;2022-12-07T13:37:02;3.90;93.30
21676;DHT22;10999;51.332;9.458;2022-12-07T13:39:35;4.00;93.20
21676;DHT22;10999;51.332;9.458;2022-12-07T13:42:15;4.00;93.10
21676;DHT22;10999;51.332;9.458;2022-12-07T13:44:45;4.00;92.70
21676;DHT22;10999;51.332;9.458;2022-12-07T13:47:32;4.00;92.70
21676;DHT22;10999;51.332;9.458;2022-12-07T13:50:01;4.00;92.50
21676;DHT22;10999;51.332;9.458;2022-12-07T13:52:30;4.00;92.40
21676;DHT22;10999;51.332;9.458;2022-12-07T13:54:59;4.00;92.50
21676;DHT22;10999;51.332;9.458;2022-12-07T13:57:29;4.00;92.60
21676;DHT22;10999;51.332;9.458;2022-12-07T14:00:13;4.00;92.40
21676;DHT22;10999;51.332;9.458;2022-12-07T14:02:55;4.00;92.40
21676;DHT22;10999;51.332;9.458;2022-12-07T14:05:25;4.00;92.70
21676;DHT22;10999;51.332;9.458;2022-12-07T14:08:20;4.00;92.70
21676;DHT22;10999;51.332;9.458;2022-12-07T14:13:34;3.90;93.00
21676;DHT22;10999;51.332;9.458;2022-12-07T14:16:04;4.00;93.10
21676;DHT22;10999;51.332;9.458;2022-12-07T14:21:14;4.00;93.10
21676;DHT22;10999;51.332;9.458;2022-12-07T14:23:42;3.90;93.10
21676;DHT22;10999;51.332;9.458;2022-12-07T14:26:18;3.90;93.00
21676;DHT22;10999;51.332;9.458;2022-12-07T14:28:46;3.90;92.80
21676;DHT22;10999;51.332;9.458;2022-12-07T14:31:18;3.90;92.60
21676;DHT22;10999;51.332;9.458;2022-12-07T14:33:59;3.90;92.30
21676;DHT22;10999;51.332;9.458;2022-12-07T14:36:25;3.80;92.20
21676;DHT22;10999;51.332;9.458;2022-12-07T14:38:52;3.80;92.20
21676;DHT22;10999;51.332;9.458;2022-12-07T14:41:22;3.80;92.30
21676;DHT22;10999;51.332;9.458;2022-12-07T14:44:12;3.80;92.30
21676;DHT22;10999;51.332;9.458;2022-12-07T14:46:59;3.90;92.20
21676;DHT22;10999;51.332;9.458;2022-12-07T14:49:46;4.00;91.80
21676;DHT22;10999;51.332;9.458;2022-12-07T14:52:28;4.00;92.00
21676;DHT22;10999;51.332;9.458;2022-12-07T14:55:29;4.00;91.00
21676;DHT22;10999;51.332;9.458;2022-12-07T14:57:56;4.00;90.70
21676;DHT22;10999;51.332;9.458;2022-12-07T15:00:25;4.00;90.50
21676;DHT22;10999;51.332;9.458;2022-12-07T15:02:53;3.90;90.40
21676;DHT22;10999;51.332;9.458;2022-12-07T15:05:20;3.90;90.30
21676;DHT22;10999;51.332;9.458;2022-12-07T15:07:48;3.80;90.00
21676;DHT22;10999;51.332;9.458;2022-12-07T15:10:21;3.80;89.70
21676;DHT22;10999;51.332;9.458;2022-12-07T15:12:50;3.70;89.50
21676;DHT22;10999;51.332;9.458;2022-12-07T15:15:17;3.70;89.20
21676;DHT22;10999;51.332;9.458;2022-12-07T15:17:44;3.70;89.10
21676;DHT22;10999;51.332;9.458;2022-12-07T15:20:14;3.60;89.00
21676;DHT22;10999;51.332;9.458;2022-12-07T15:22:43;3.60;88.70
21676;DHT22;10999;51.332;9.458;2022-12-07T15:25:13;3.50;88.50
21676;DHT22;10999;51.332;9.458;2022-12-07T15:27:40;3.50;88.70
21676;DHT22;10999;51.332;9.458;2022-12-07T15:30:07;3.40;88.20
21676;DHT22;10999;51.332;9.458;2022-12-07T15:32:34;3.40;88.30
21676;DHT22;10999;51.332;9.458;2022-12-07T15:35:00;3.40;88.10
21676;DHT22;10999;51.332;9.458;2022-12-07T15:37:28;3.40;88.40
21676;DHT22;10999;51.332;9.458;2022-12-07T15:39:54;3.40;88.50
21676;DHT22;10999;51.332;9.458;2022-12-07T15:42:21;3.40;88.50
21676;DHT22;10999;51.332;9.458;2022-12-07T15:44:47;3.40;88.60
21676;DHT22;10999;51.332;9.458;2022-12-07T15:47:41;3.40;88.60
21676;DHT22;10999;51.332;9.458;2022-12-07T15:50:28;3.30;88.90
21676;DHT22;10999;51.332;9.458;2022-12-07T15:52:55;3.30;88.60
21676;DHT22;10999;51.332;9.458;2022-12-07T15:55:22;3.30;88.60
21676;DHT22;10999;51.332;9.458;2022-12-07T15:57:49;3.30;89.30
21676;DHT22;10999;51.332;9.458;2022-12-07T16:00:16;3.30;88.70
21676;DHT22;10999;51.332;9.458;2022-12-07T16:02:43;3.20;88.60
21676;DHT22;10999;51.332;9.458;2022-12-07T16:05:13;3.20;88.80
21676;DHT22;10999;51.332;9.458;2022-12-07T16:07:39;3.10;89.00
21676;DHT22;10999;51.332;9.458;2022-12-07T16:10:07;3.10;89.20
21676;DHT22;10999;51.332;9.458;2022-12-07T16:12:35;3.10;89.40
21676;DHT22;10999;51.332;9.458;2022-12-07T16:15:02;3.10;89.60
21676;DHT22;10999;51.332;9.458;2022-12-07T16:17:29;3.00;89.60
21676;DHT22;10999;51.332;9.458;2022-12-07T16:19:56;3.00;90.00
21676;DHT22;10999;51.332;9.458;2022-12-07T16:22:23;3.00;90.30
21676;DHT22;10999;51.332;9.458;2022-12-07T16:24:50;3.00;90.50
21676;DHT22;10999;51.332;9.458;2022-12-07T16:27:17;3.00;90.80
21676;DHT22;10999;51.332;9.458;2022-12-07T16:29:43;3.00;90.90
21676;DHT22;10999;51.332;9.458;2022-12-07T16:32:10;3.00;91.00
21676;DHT22;10999;51.332;9.458;2022-12-07T16:34:37;3.00;90.70
21676;DHT22;10999;51.332;9.458;2022-12-07T16:37:03;3.00;90.40
21676;DHT22;10999;51.332;9.458;2022-12-07T16:39:32;3.00;90.00
21676;DHT22;10999;51.332;9.458;2022-12-07T16:41:59;3.00;89.70
21676;DHT22;10999;51.332;9.458;2022-12-07T16:44:26;3.00;89.70
21676;DHT22;10999;51.332;9.458;2022-12-07T16:46:52;3.00;89.80
21676;DHT22;10999;51.332;9.458;2022-12-07T16:49:19;3.00;89.90
21676;DHT22;10999;51.332;9.458;2022-12-07T16:51:49;3.00;89.90
21676;DHT22;10999;51.332;9.458;2022-12-07T16:54:36;3.00;89.90
21676;DHT22;10999;51.332;9.458;2022-12-07T16:57:03;3.00;90.10
21676;DHT22;10999;51.332;9.458;2022-12-07T16:59:29;3.00;90.10
21676;DHT22;10999;51.332;9.458;2022-12-07T17:01:56;3.00;89.60
21676;DHT22;10999;51.332;9.458;2022-12-07T17:04:23;3.00;89.60
21676;DHT22;10999;51.332;9.458;2022-12-07T17:06:50;2.90;89.70
21676;DHT22;10999;51.332;9.458;2022-12-07T17:09:16;3.00;89.00
21676;DHT22;10999;51.332;9.458;2022-12-07T17:11:47;2.90;89.30
21676;DHT22;10999;51.332;9.458;2022-12-07T17:14:14;3.00;88.50
21676;DHT22;10999;51.332;9.458;2022-12-07T17:16:59;3.00;88.40
21676;DHT22;10999;51.332;9.458;2022-12-07T17:19:29;3.00;88.20
21676;DHT22;10999;51.332;9.458;2022-12-07T17:21:55;3.00;88.70
21676;DHT22;10999;51.332;9.458;2022-12-07T17:24:22;3.00;89.50
21676;DHT22;10999;51.332;9.458;2022-12-07T17:26:49;3.00;88.70
21676;DHT22;10999;51.332;9.458;2022-12-07T17:29:17;2.90;89.20
21676;DHT22;10999;51.332;9.458;2022-12-07T17:31:45;2.90;89.60
21676;DHT22;10999;51.332;9.458;2022-12-07T17:34:17;2.90;89.60
21676;DHT22;10999;51.332;9.458;2022-12-07T17:36:44;2.90;89.70
21676;DHT22;10999;51.332;9.458;2022-12-07T17:39:15;2.90;90.10
21676;DHT22;10999;51.332;9.458;2022-12-07T17:41:42;2.80;90.00
21676;DHT22;10999;51.332;9.458;2022-12-07T17:44:28;2.80;90.20
21676;DHT22;10999;51.332;9.458;2022-12-07T17:46:54;2.80;90.20
21676;DHT22;10999;51.332;9.458;2022-12-07T17:49:24;2.80;90.30
21676;DHT22;10999;51.332;9.458;2022-12-07T17:51:51;2.80;90.50
21676;DHT22;10999;51.332;9.458;2022-12-07T17:54:36;2.80;90.20
21676;DHT22;10999;51.332;9.458;2022-12-07T17:57:03;2.80;90.20
21676;DHT22;10999;51.332;9.458;2022-12-07T17:59:30;2.80;90.20
21676;DHT22;10999;51.332;9.458;2022-12-07T18:01:56;2.80;90.10
21676;DHT22;10999;51.332;9.458;2022-12-07T18:04:23;2.90;89.80